sensor_id;sensor_type;location;lat;lon;timestamp;P1;durP1;ratioP1;P2;durP2;ratioP2
62423;SDS011;48463;43.604;3.872;2023-05-13T00:00:46;3.60;;;1.75;;
62423;SDS011;48463;43.604;3.872;2023-05-13T00:03:12;6.72;;;2.28;;
62423;SDS011;48463;43.604;3.872;2023-05-13T00:05:37;2.95;;;1.77;;
62423;SDS011;48463;43.604;3.872;2023-05-13T00:08:04;3.80;;;2.22;;
62423;SDS011;48463;43.604;3.872;2023-05-13T00:10:31;4.47;;;2.10;;
62423;SDS011;48463;43.604;3.872;2023-05-13T00:12:58;4.72;;;2.33;;
62423;SDS011;48463;43.604;3.872;2023-05-13T00:15:24;2.38;;;1.80;;
62423;SDS011;48463;43.604;3.872;2023-05-13T00:17:50;5.30;;;1.90;;
62423;SDS011;48463;43.604;3.872;2023-05-13T00:20:15;3.67;;;1.77;;
62423;SDS011;48463;43.604;3.872;2023-05-13T00:22:41;2.83;;;1.80;;
62423;SDS011;48463;43.604;3.872;2023-05-13T00:25:07;2.40;;;1.88;;
62423;SDS011;48463;43.604;3.872;2023-05-13T00:27:33;3.20;;;1.85;;
62423;SDS011;48463;43.604;3.872;2023-05-13T00:29:59;3.05;;;1.92;;
62423;SDS011;48463;43.604;3.872;2023-05-13T00:32:25;3.00;;;2.10;;
62423;SDS011;48463;43.604;3.872;2023-05-13T00:34:51;4.50;;;2.33;;
62423;SDS011;48463;43.604;3.872;2023-05-13T00:37:16;2.97;;;1.98;;
62423;SDS011;48463;43.604;3.872;2023-05-13T00:39:42;2.80;;;1.85;;
62423;SDS011;48463;43.604;3.872;2023-05-13T00:42:08;2.53;;;1.85;;
62423;SDS011;48463;43.604;3.872;2023-05-13T00:44:36;6.85;;;2.25;;
62423;SDS011;48463;43.604;3.872;2023-05-13T00:47:02;1.90;;;1.60;;
62423;SDS011;48463;43.604;3.872;2023-05-13T00:49:32;2.83;;;1.95;;
62423;SDS011;48463;43.604;3.872;2023-05-13T00:51:58;3.80;;;2.13;;
62423;SDS011;48463;43.604;3.872;2023-05-13T00:54:24;4.75;;;2.38;;
62423;SDS011;48463;43.604;3.872;2023-05-13T00:56:49;3.40;;;1.77;;
62423;SDS011;48463;43.604;3.872;2023-05-13T00:59:21;4.32;;;1.98;;
62423;SDS011;48463;43.604;3.872;2023-05-13T01:01:55;4.72;;;2.03;;
62423;SDS011;48463;43.604;3.872;2023-05-13T01:04:34;4.57;;;2.15;;
62423;SDS011;48463;43.604;3.872;2023-05-13T01:12:35;3.78;;;2.00;;
62423;SDS011;48463;43.604;3.872;2023-05-13T01:15:09;4.10;;;1.87;;
62423;SDS011;48463;43.604;3.872;2023-05-13T01:20:33;2.45;;;1.88;;
62423;SDS011;48463;43.604;3.872;2023-05-13T01:22:59;5.97;;;2.45;;
62423;SDS011;48463;43.604;3.872;2023-05-13T01:25:25;3.53;;;2.22;;
62423;SDS011;48463;43.604;3.872;2023-05-13T01:27:51;5.45;;;3.45;;
62423;SDS011;48463;43.604;3.872;2023-05-13T01:30:17;4.25;;;3.75;;
62423;SDS011;48463;43.604;3.872;2023-05-13T01:32:43;5.25;;;3.47;;
62423;SDS011;48463;43.604;3.872;2023-05-13T01:35:10;5.00;;;3.67;;
62423;SDS011;48463;43.604;3.872;2023-05-13T01:37:36;4.30;;;3.85;;
62423;SDS011;48463;43.604;3.872;2023-05-13T01:40:06;3.63;;;3.30;;
62423;SDS011;48463;43.604;3.872;2023-05-13T01:42:32;4.20;;;3.78;;
62423;SDS011;48463;43.604;3.872;2023-05-13T01:44:59;4.43;;;3.90;;
62423;SDS011;48463;43.604;3.872;2023-05-13T01:47:24;4.95;;;3.42;;
62423;SDS011;48463;43.604;3.872;2023-05-13T01:49:51;6.25;;;3.95;;
62423;SDS011;48463;43.604;3.872;2023-05-13T01:52:16;4.65;;;3.60;;
62423;SDS011;48463;43.604;3.872;2023-05-13T01:54:42;6.05;;;3.70;;
62423;SDS011;48463;43.604;3.872;2023-05-13T01:57:07;4.30;;;3.90;;
62423;SDS011;48463;43.604;3.872;2023-05-13T01:59:33;8.77;;;3.55;;
62423;SDS011;48463;43.604;3.872;2023-05-13T02:01:59;5.40;;;3.97;;
62423;SDS011;48463;43.604;3.872;2023-05-13T02:04:24;5.25;;;4.15;;
62423;SDS011;48463;43.604;3.872;2023-05-13T02:06:51;5.32;;;4.22;;
62423;SDS011;48463;43.604;3.872;2023-05-13T02:09:16;4.97;;;4.38;;
62423;SDS011;48463;43.604;3.872;2023-05-13T02:11:43;4.30;;;3.60;;
62423;SDS011;48463;43.604;3.872;2023-05-13T02:14:10;5.30;;;3.78;;
62423;SDS011;48463;43.604;3.872;2023-05-13T02:16:35;4.75;;;3.92;;
62423;SDS011;48463;43.604;3.872;2023-05-13T02:19:01;6.03;;;3.85;;
62423;SDS011;48463;43.604;3.872;2023-05-13T02:21:27;6.53;;;3.80;;
62423;SDS011;48463;43.604;3.872;2023-05-13T02:23:52;6.43;;;3.90;;
62423;SDS011;48463;43.604;3.872;2023-05-13T02:26:18;8.23;;;3.90;;
62423;SDS011;48463;43.604;3.872;2023-05-13T02:28:43;4.65;;;3.50;;
62423;SDS011;48463;43.604;3.872;2023-05-13T02:31:09;7.05;;;3.95;;
62423;SDS011;48463;43.604;3.872;2023-05-13T02:33:35;5.45;;;3.58;;
62423;SDS011;48463;43.604;3.872;2023-05-13T02:36:00;3.90;;;3.45;;
62423;SDS011;48463;43.604;3.872;2023-05-13T02:38:26;4.68;;;3.67;;
62423;SDS011;48463;43.604;3.872;2023-05-13T02:40:52;4.13;;;3.53;;
62423;SDS011;48463;43.604;3.872;2023-05-13T02:43:17;4.90;;;3.55;;
62423;SDS011;48463;43.604;3.872;2023-05-13T02:45:43;4.63;;;3.85;;
62423;SDS011;48463;43.604;3.872;2023-05-13T02:48:10;5.13;;;3.95;;
62423;SDS011;48463;43.604;3.872;2023-05-13T02:50:35;4.55;;;3.70;;
62423;SDS011;48463;43.604;3.872;2023-05-13T02:53:01;5.68;;;4.47;;
62423;SDS011;48463;43.604;3.872;2023-05-13T02:55:27;5.22;;;3.80;;
62423;SDS011;48463;43.604;3.872;2023-05-13T02:57:52;4.82;;;4.10;;
62423;SDS011;48463;43.604;3.872;2023-05-13T03:00:20;5.47;;;3.75;;
62423;SDS011;48463;43.604;3.872;2023-05-13T03:02:46;4.20;;;3.53;;
62423;SDS011;48463;43.604;3.872;2023-05-13T03:05:11;4.68;;;3.85;;
62423;SDS011;48463;43.604;3.872;2023-05-13T03:07:37;4.30;;;3.47;;
62423;SDS011;48463;43.604;3.872;2023-05-13T03:10:03;4.38;;;3.90;;
62423;SDS011;48463;43.604;3.872;2023-05-13T03:12:29;4.15;;;2.53;;
62423;SDS011;48463;43.604;3.872;2023-05-13T03:14:55;3.75;;;2.38;;
62423;SDS011;48463;43.604;3.872;2023-05-13T03:17:21;3.65;;;2.15;;
62423;SDS011;48463;43.604;3.872;2023-05-13T03:19:46;5.25;;;2.40;;
62423;SDS011;48463;43.604;3.872;2023-05-13T03:22:12;4.00;;;1.95;;
62423;SDS011;48463;43.604;3.872;2023-05-13T03:24:38;2.88;;;1.80;;
62423;SDS011;48463;43.604;3.872;2023-05-13T03:27:03;3.30;;;2.17;;
62423;SDS011;48463;43.604;3.872;2023-05-13T03:29:29;4.03;;;1.90;;
62423;SDS011;48463;43.604;3.872;2023-05-13T03:31:55;3.67;;;2.28;;
62423;SDS011;48463;43.604;3.872;2023-05-13T03:34:20;3.17;;;1.90;;
62423;SDS011;48463;43.604;3.872;2023-05-13T03:36:46;3.50;;;2.45;;
62423;SDS011;48463;43.604;3.872;2023-05-13T03:39:12;4.65;;;2.40;;
62423;SDS011;48463;43.604;3.872;2023-05-13T03:41:37;2.40;;;1.83;;
62423;SDS011;48463;43.604;3.872;2023-05-13T03:44:03;4.20;;;2.28;;
62423;SDS011;48463;43.604;3.872;2023-05-13T03:46:29;2.53;;;1.80;;
62423;SDS011;48463;43.604;3.872;2023-05-13T03:48:54;2.22;;;1.92;;
62423;SDS011;48463;43.604;3.872;2023-05-13T03:51:21;3.63;;;2.42;;
62423;SDS011;48463;43.604;3.872;2023-05-13T03:53:47;3.63;;;2.17;;
62423;SDS011;48463;43.604;3.872;2023-05-13T03:56:12;4.32;;;2.38;;
62423;SDS011;48463;43.604;3.872;2023-05-13T03:58:38;5.78;;;2.72;;
62423;SDS011;48463;43.604;3.872;2023-05-13T04:01:07;11.18;;;2.42;;
62423;SDS011;48463;43.604;3.872;2023-05-13T04:03:33;3.25;;;2.17;;
62423;SDS011;48463;43.604;3.872;2023-05-13T04:05:59;5.50;;;2.28;;
62423;SDS011;48463;43.604;3.872;2023-05-13T04:08:25;4.28;;;2.30;;
62423;SDS011;48463;43.604;3.872;2023-05-13T04:10:51;4.40;;;2.50;;
62423;SDS011;48463;43.604;3.872;2023-05-13T04:13:17;3.60;;;2.63;;
62423;SDS011;48463;43.604;3.872;2023-05-13T04:15:43;2.63;;;1.90;;
62423;SDS011;48463;43.604;3.872;2023-05-13T04:18:08;6.18;;;2.40;;
62423;SDS011;48463;43.604;3.872;2023-05-13T04:20:37;4.03;;;2.40;;
62423;SDS011;48463;43.604;3.872;2023-05-13T04:23:06;3.75;;;2.17;;
62423;SDS011;48463;43.604;3.872;2023-05-13T04:25:31;4.97;;;2.55;;
62423;SDS011;48463;43.604;3.872;2023-05-13T04:27:59;3.67;;;2.40;;
62423;SDS011;48463;43.604;3.872;2023-05-13T04:30:24;5.53;;;2.75;;
62423;SDS011;48463;43.604;3.872;2023-05-13T04:32:50;3.97;;;2.70;;
62423;SDS011;48463;43.604;3.872;2023-05-13T04:35:16;4.10;;;2.47;;
62423;SDS011;48463;43.604;3.872;2023-05-13T04:37:42;3.60;;;2.17;;
62423;SDS011;48463;43.604;3.872;2023-05-13T04:40:08;3.83;;;2.65;;
62423;SDS011;48463;43.604;3.872;2023-05-13T04:42:34;3.65;;;2.53;;
62423;SDS011;48463;43.604;3.872;2023-05-13T04:45:00;9.98;;;2.63;;
62423;SDS011;48463;43.604;3.872;2023-05-13T04:47:26;5.18;;;2.25;;
62423;SDS011;48463;43.604;3.872;2023-05-13T04:49:52;3.55;;;1.92;;
62423;SDS011;48463;43.604;3.872;2023-05-13T04:52:17;3.38;;;2.22;;
62423;SDS011;48463;43.604;3.872;2023-05-13T04:54:43;2.25;;;1.70;;
62423;SDS011;48463;43.604;3.872;2023-05-13T04:57:09;4.50;;;2.75;;
62423;SDS011;48463;43.604;3.872;2023-05-13T04:59:35;3.28;;;2.00;;
62423;SDS011;48463;43.604;3.872;2023-05-13T05:02:00;4.68;;;2.67;;
62423;SDS011;48463;43.604;3.872;2023-05-13T05:04:26;3.03;;;2.00;;
62423;SDS011;48463;43.604;3.872;2023-05-13T05:06:52;3.67;;;2.15;;
62423;SDS011;48463;43.604;3.872;2023-05-13T05:09:18;4.43;;;2.45;;
62423;SDS011;48463;43.604;3.872;2023-05-13T05:11:44;5.38;;;2.33;;
62423;SDS011;48463;43.604;3.872;2023-05-13T05:14:09;3.50;;;1.67;;
62423;SDS011;48463;43.604;3.872;2023-05-13T05:16:35;3.90;;;2.15;;
62423;SDS011;48463;43.604;3.872;2023-05-13T05:19:01;3.15;;;2.17;;
62423;SDS011;48463;43.604;3.872;2023-05-13T05:21:26;3.35;;;2.28;;
62423;SDS011;48463;43.604;3.872;2023-05-13T05:23:52;3.15;;;1.98;;
62423;SDS011;48463;43.604;3.872;2023-05-13T05:26:17;5.68;;;2.40;;
62423;SDS011;48463;43.604;3.872;2023-05-13T05:28:43;3.47;;;2.17;;
62423;SDS011;48463;43.604;3.872;2023-05-13T05:31:10;3.15;;;2.08;;
62423;SDS011;48463;43.604;3.872;2023-05-13T05:33:36;4.03;;;2.40;;
62423;SDS011;48463;43.604;3.872;2023-05-13T05:36:02;3.78;;;1.73;;
62423;SDS011;48463;43.604;3.872;2023-05-13T05:38:27;3.25;;;2.15;;
62423;SDS011;48463;43.604;3.872;2023-05-13T05:40:53;4.60;;;2.38;;
62423;SDS011;48463;43.604;3.872;2023-05-13T05:43:19;3.22;;;2.00;;
62423;SDS011;48463;43.604;3.872;2023-05-13T05:45:45;3.30;;;2.08;;
62423;SDS011;48463;43.604;3.872;2023-05-13T05:48:10;3.92;;;2.33;;
62423;SDS011;48463;43.604;3.872;2023-05-13T05:50:36;6.53;;;2.25;;
62423;SDS011;48463;43.604;3.872;2023-05-13T05:53:02;4.38;;;2.45;;
62423;SDS011;48463;43.604;3.872;2023-05-13T05:55:28;3.38;;;1.83;;
62423;SDS011;48463;43.604;3.872;2023-05-13T05:57:55;2.30;;;1.77;;
62423;SDS011;48463;43.604;3.872;2023-05-13T06:00:22;3.17;;;2.05;;
62423;SDS011;48463;43.604;3.872;2023-05-13T06:02:48;3.03;;;1.95;;
62423;SDS011;48463;43.604;3.872;2023-05-13T06:05:14;5.60;;;2.83;;
62423;SDS011;48463;43.604;3.872;2023-05-13T06:07:40;4.30;;;2.53;;
62423;SDS011;48463;43.604;3.872;2023-05-13T06:10:06;3.97;;;2.40;;
62423;SDS011;48463;43.604;3.872;2023-05-13T06:12:32;4.60;;;2.35;;
62423;SDS011;48463;43.604;3.872;2023-05-13T06:14:58;2.83;;;1.92;;
62423;SDS011;48463;43.604;3.872;2023-05-13T06:17:25;6.50;;;2.53;;
62423;SDS011;48463;43.604;3.872;2023-05-13T06:19:51;2.90;;;1.98;;
62423;SDS011;48463;43.604;3.872;2023-05-13T06:22:16;2.80;;;2.00;;
62423;SDS011;48463;43.604;3.872;2023-05-13T06:24:42;3.88;;;1.98;;
62423;SDS011;48463;43.604;3.872;2023-05-13T06:27:12;4.60;;;2.05;;
62423;SDS011;48463;43.604;3.872;2023-05-13T06:29:38;3.33;;;2.25;;
62423;SDS011;48463;43.604;3.872;2023-05-13T06:32:04;4.15;;;1.95;;
62423;SDS011;48463;43.604;3.872;2023-05-13T06:34:30;3.13;;;2.10;;
62423;SDS011;48463;43.604;3.872;2023-05-13T06:36:56;6.25;;;1.90;;
62423;SDS011;48463;43.604;3.872;2023-05-13T06:39:21;4.40;;;2.35;;
62423;SDS011;48463;43.604;3.872;2023-05-13T06:41:47;3.65;;;2.35;;
62423;SDS011;48463;43.604;3.872;2023-05-13T06:44:12;3.67;;;2.30;;
62423;SDS011;48463;43.604;3.872;2023-05-13T06:46:38;4.78;;;2.60;;
62423;SDS011;48463;43.604;3.872;2023-05-13T06:49:04;4.03;;;2.38;;
62423;SDS011;48463;43.604;3.872;2023-05-13T06:51:30;4.45;;;2.30;;
62423;SDS011;48463;43.604;3.872;2023-05-13T06:53:58;2.88;;;1.85;;
62423;SDS011;48463;43.604;3.872;2023-05-13T06:56:23;4.65;;;2.28;;
62423;SDS011;48463;43.604;3.872;2023-05-13T06:58:49;3.90;;;2.25;;
62423;SDS011;48463;43.604;3.872;2023-05-13T07:01:18;7.00;;;2.22;;
62423;SDS011;48463;43.604;3.872;2023-05-13T07:03:44;2.72;;;1.63;;
62423;SDS011;48463;43.604;3.872;2023-05-13T07:06:10;2.50;;;1.73;;
62423;SDS011;48463;43.604;3.872;2023-05-13T07:08:35;8.70;;;2.42;;
62423;SDS011;48463;43.604;3.872;2023-05-13T07:11:01;3.70;;;2.17;;
62423;SDS011;48463;43.604;3.872;2023-05-13T07:13:27;3.90;;;1.75;;
62423;SDS011;48463;43.604;3.872;2023-05-13T07:15:54;2.45;;;1.55;;
62423;SDS011;48463;43.604;3.872;2023-05-13T07:18:19;4.25;;;2.08;;
62423;SDS011;48463;43.604;3.872;2023-05-13T07:20:45;4.95;;;3.17;;
62423;SDS011;48463;43.604;3.872;2023-05-13T07:23:11;3.15;;;1.90;;
62423;SDS011;48463;43.604;3.872;2023-05-13T07:25:36;3.10;;;1.48;;
62423;SDS011;48463;43.604;3.872;2023-05-13T07:28:02;1.52;;;1.38;;
62423;SDS011;48463;43.604;3.872;2023-05-13T07:30:28;4.53;;;1.83;;
62423;SDS011;48463;43.604;3.872;2023-05-13T07:32:55;2.42;;;1.13;;
62423;SDS011;48463;43.604;3.872;2023-05-13T07:35:22;2.13;;;1.30;;
62423;SDS011;48463;43.604;3.872;2023-05-13T07:37:49;1.40;;;1.10;;
62423;SDS011;48463;43.604;3.872;2023-05-13T07:40:15;2.42;;;1.50;;
62423;SDS011;48463;43.604;3.872;2023-05-13T07:42:41;3.60;;;1.75;;
62423;SDS011;48463;43.604;3.872;2023-05-13T07:45:07;7.20;;;2.65;;
62423;SDS011;48463;43.604;3.872;2023-05-13T07:47:33;2.30;;;1.50;;
62423;SDS011;48463;43.604;3.872;2023-05-13T07:49:59;2.08;;;1.38;;
62423;SDS011;48463;43.604;3.872;2023-05-13T07:52:25;3.67;;;1.50;;
62423;SDS011;48463;43.604;3.872;2023-05-13T07:54:50;1.88;;;1.05;;
62423;SDS011;48463;43.604;3.872;2023-05-13T07:57:16;2.42;;;1.38;;
62423;SDS011;48463;43.604;3.872;2023-05-13T07:59:43;2.72;;;1.25;;
62423;SDS011;48463;43.604;3.872;2023-05-13T08:02:09;3.30;;;1.80;;
62423;SDS011;48463;43.604;3.872;2023-05-13T08:04:35;4.28;;;2.00;;
62423;SDS011;48463;43.604;3.872;2023-05-13T08:07:01;8.07;;;2.10;;
62423;SDS011;48463;43.604;3.872;2023-05-13T08:09:27;3.65;;;1.40;;
62423;SDS011;48463;43.604;3.872;2023-05-13T08:11:53;6.28;;;1.90;;
62423;SDS011;48463;43.604;3.872;2023-05-13T08:14:18;2.95;;;1.40;;
62423;SDS011;48463;43.604;3.872;2023-05-13T08:16:45;2.00;;;1.38;;
62423;SDS011;48463;43.604;3.872;2023-05-13T08:19:12;2.40;;;1.65;;
62423;SDS011;48463;43.604;3.872;2023-05-13T08:21:38;2.58;;;1.60;;
62423;SDS011;48463;43.604;3.872;2023-05-13T08:24:04;3.30;;;1.60;;
62423;SDS011;48463;43.604;3.872;2023-05-13T08:26:30;1.65;;;1.23;;
62423;SDS011;48463;43.604;3.872;2023-05-13T08:28:56;3.10;;;1.48;;
62423;SDS011;48463;43.604;3.872;2023-05-13T08:31:22;5.15;;;1.63;;
62423;SDS011;48463;43.604;3.872;2023-05-13T08:33:49;3.15;;;2.28;;
62423;SDS011;48463;43.604;3.872;2023-05-13T08:36:18;3.88;;;1.77;;
62423;SDS011;48463;43.604;3.872;2023-05-13T08:38:45;3.90;;;1.60;;
62423;SDS011;48463;43.604;3.872;2023-05-13T08:41:11;7.55;;;3.85;;
62423;SDS011;48463;43.604;3.872;2023-05-13T08:43:43;5.50;;;2.08;;
62423;SDS011;48463;43.604;3.872;2023-05-13T08:46:11;2.72;;;1.92;;
62423;SDS011;48463;43.604;3.872;2023-05-13T08:48:40;2.13;;;1.25;;
62423;SDS011;48463;43.604;3.872;2023-05-13T08:51:06;1.73;;;1.55;;
62423;SDS011;48463;43.604;3.872;2023-05-13T08:53:33;2.45;;;1.30;;
62423;SDS011;48463;43.604;3.872;2023-05-13T08:56:00;2.20;;;1.45;;
62423;SDS011;48463;43.604;3.872;2023-05-13T08:58:26;4.72;;;1.90;;
62423;SDS011;48463;43.604;3.872;2023-05-13T09:00:52;4.88;;;2.40;;
62423;SDS011;48463;43.604;3.872;2023-05-13T09:03:18;3.67;;;1.40;;
62423;SDS011;48463;43.604;3.872;2023-05-13T09:05:45;4.35;;;1.75;;
62423;SDS011;48463;43.604;3.872;2023-05-13T09:08:11;4.18;;;2.13;;
62423;SDS011;48463;43.604;3.872;2023-05-13T09:10:37;3.80;;;1.73;;
62423;SDS011;48463;43.604;3.872;2023-05-13T09:13:03;6.38;;;1.98;;
62423;SDS011;48463;43.604;3.872;2023-05-13T09:15:30;4.35;;;1.88;;
62423;SDS011;48463;43.604;3.872;2023-05-13T09:18:05;2.55;;;1.73;;
62423;SDS011;48463;43.604;3.872;2023-05-13T09:20:31;5.60;;;1.90;;
62423;SDS011;48463;43.604;3.872;2023-05-13T09:25:31;2.97;;;1.70;;
62423;SDS011;48463;43.604;3.872;2023-05-13T09:27:58;3.33;;;1.60;;
62423;SDS011;48463;43.604;3.872;2023-05-13T09:30:26;2.55;;;1.27;;
62423;SDS011;48463;43.604;3.872;2023-05-13T09:35:42;3.33;;;1.52;;
62423;SDS011;48463;43.604;3.872;2023-05-13T09:38:15;3.20;;;1.60;;
62423;SDS011;48463;43.604;3.872;2023-05-13T09:40:50;1.67;;;1.20;;
62423;SDS011;48463;43.604;3.872;2023-05-13T09:43:20;3.67;;;1.55;;
62423;SDS011;48463;43.604;3.872;2023-05-13T09:45:51;2.72;;;1.65;;
62423;SDS011;48463;43.604;3.872;2023-05-13T09:48:24;3.72;;;2.10;;
62423;SDS011;48463;43.604;3.872;2023-05-13T09:50:51;4.97;;;1.92;;
62423;SDS011;48463;43.604;3.872;2023-05-13T09:53:17;3.22;;;1.73;;
62423;SDS011;48463;43.604;3.872;2023-05-13T09:55:47;4.85;;;1.88;;
62423;SDS011;48463;43.604;3.872;2023-05-13T09:58:14;11.93;;;2.35;;
62423;SDS011;48463;43.604;3.872;2023-05-13T10:00:40;4.90;;;1.95;;
62423;SDS011;48463;43.604;3.872;2023-05-13T10:03:07;7.88;;;2.30;;
62423;SDS011;48463;43.604;3.872;2023-05-13T10:05:34;5.35;;;2.13;;
62423;SDS011;48463;43.604;3.872;2023-05-13T10:08:00;5.95;;;1.83;;
62423;SDS011;48463;43.604;3.872;2023-05-13T10:10:30;2.50;;;1.40;;
62423;SDS011;48463;43.604;3.872;2023-05-13T10:13:09;5.68;;;1.77;;
62423;SDS011;48463;43.604;3.872;2023-05-13T10:15:48;4.32;;;2.08;;
62423;SDS011;48463;43.604;3.872;2023-05-13T10:18:15;5.20;;;1.90;;
62423;SDS011;48463;43.604;3.872;2023-05-13T10:20:42;4.40;;;2.53;;
62423;SDS011;48463;43.604;3.872;2023-05-13T10:23:08;4.82;;;2.72;;
62423;SDS011;48463;43.604;3.872;2023-05-13T10:25:35;3.55;;;2.38;;
62423;SDS011;48463;43.604;3.872;2023-05-13T10:28:02;6.15;;;2.58;;
62423;SDS011;48463;43.604;3.872;2023-05-13T10:30:28;3.03;;;2.42;;
62423;SDS011;48463;43.604;3.872;2023-05-13T10:32:56;6.07;;;3.30;;
62423;SDS011;48463;43.604;3.872;2023-05-13T10:35:24;5.60;;;2.60;;
62423;SDS011;48463;43.604;3.872;2023-05-13T10:38:02;4.10;;;2.38;;
62423;SDS011;48463;43.604;3.872;2023-05-13T10:43:46;8.50;;;3.25;;
62423;SDS011;48463;43.604;3.872;2023-05-13T10:46:23;11.32;;;3.33;;
62423;SDS011;48463;43.604;3.872;2023-05-13T10:48:49;7.07;;;3.10;;
62423;SDS011;48463;43.604;3.872;2023-05-13T10:51:22;3.85;;;2.25;;
62423;SDS011;48463;43.604;3.872;2023-05-13T10:53:50;7.72;;;3.30;;
62423;SDS011;48463;43.604;3.872;2023-05-13T10:56:21;5.53;;;2.90;;
62423;SDS011;48463;43.604;3.872;2023-05-13T10:59:01;4.70;;;2.40;;
62423;SDS011;48463;43.604;3.872;2023-05-13T11:01:28;2.75;;;2.10;;
62423;SDS011;48463;43.604;3.872;2023-05-13T11:04:11;5.93;;;2.08;;
62423;SDS011;48463;43.604;3.872;2023-05-13T11:06:39;5.90;;;1.98;;
62423;SDS011;48463;43.604;3.872;2023-05-13T11:09:06;3.97;;;2.25;;
62423;SDS011;48463;43.604;3.872;2023-05-13T11:11:35;2.42;;;1.67;;
62423;SDS011;48463;43.604;3.872;2023-05-13T11:19:28;9.05;;;3.67;;
62423;SDS011;48463;43.604;3.872;2023-05-13T11:22:12;8.73;;;3.42;;
62423;SDS011;48463;43.604;3.872;2023-05-13T11:24:40;11.38;;;2.80;;
62423;SDS011;48463;43.604;3.872;2023-05-13T11:27:12;6.60;;;2.08;;
62423;SDS011;48463;43.604;3.872;2023-05-13T11:29:46;5.25;;;2.42;;
62423;SDS011;48463;43.604;3.872;2023-05-13T11:35:18;4.47;;;1.90;;
62423;SDS011;48463;43.604;3.872;2023-05-13T11:37:48;5.45;;;1.98;;
62423;SDS011;48463;43.604;3.872;2023-05-13T11:40:23;3.75;;;1.98;;
62423;SDS011;48463;43.604;3.872;2023-05-13T11:42:50;6.40;;;2.58;;
62423;SDS011;48463;43.604;3.872;2023-05-13T11:45:17;7.80;;;2.42;;
62423;SDS011;48463;43.604;3.872;2023-05-13T11:47:45;3.60;;;1.67;;
62423;SDS011;48463;43.604;3.872;2023-05-13T11:52:43;6.80;;;2.17;;
62423;SDS011;48463;43.604;3.872;2023-05-13T11:55:10;9.55;;;2.72;;
62423;SDS011;48463;43.604;3.872;2023-05-13T11:57:35;8.07;;;2.75;;
62423;SDS011;48463;43.604;3.872;2023-05-13T12:00:04;4.47;;;2.13;;
62423;SDS011;48463;43.604;3.872;2023-05-13T12:02:32;4.68;;;2.10;;
62423;SDS011;48463;43.604;3.872;2023-05-13T12:05:00;5.90;;;2.03;;
62423;SDS011;48463;43.604;3.872;2023-05-13T12:07:28;5.63;;;2.17;;
62423;SDS011;48463;43.604;3.872;2023-05-13T12:09:55;4.38;;;2.00;;
62423;SDS011;48463;43.604;3.872;2023-05-13T12:12:22;4.80;;;1.75;;
62423;SDS011;48463;43.604;3.872;2023-05-13T12:14:50;4.78;;;2.25;;
62423;SDS011;48463;43.604;3.872;2023-05-13T12:17:17;7.50;;;2.22;;
62423;SDS011;48463;43.604;3.872;2023-05-13T12:22:29;4.60;;;2.35;;
62423;SDS011;48463;43.604;3.872;2023-05-13T12:24:55;3.38;;;1.75;;
62423;SDS011;48463;43.604;3.872;2023-05-13T12:27:25;7.90;;;2.50;;
62423;SDS011;48463;43.604;3.872;2023-05-13T12:29:53;4.43;;;2.08;;
62423;SDS011;48463;43.604;3.872;2023-05-13T12:32:19;7.65;;;1.83;;
62423;SDS011;48463;43.604;3.872;2023-05-13T12:34:48;5.38;;;1.92;;
62423;SDS011;48463;43.604;3.872;2023-05-13T12:37:15;4.72;;;2.30;;
62423;SDS011;48463;43.604;3.872;2023-05-13T12:39:41;5.70;;;2.40;;
62423;SDS011;48463;43.604;3.872;2023-05-13T12:42:14;4.63;;;2.13;;
62423;SDS011;48463;43.604;3.872;2023-05-13T12:44:42;3.65;;;2.00;;
62423;SDS011;48463;43.604;3.872;2023-05-13T12:47:09;6.90;;;2.22;;
62423;SDS011;48463;43.604;3.872;2023-05-13T12:49:53;5.97;;;2.45;;
62423;SDS011;48463;43.604;3.872;2023-05-13T12:52:20;4.20;;;2.10;;
62423;SDS011;48463;43.604;3.872;2023-05-13T12:54:46;5.55;;;2.85;;
62423;SDS011;48463;43.604;3.872;2023-05-13T12:57:14;3.95;;;2.00;;
62423;SDS011;48463;43.604;3.872;2023-05-13T12:59:44;6.75;;;2.30;;
62423;SDS011;48463;43.604;3.872;2023-05-13T13:02:11;4.63;;;2.72;;
62423;SDS011;48463;43.604;3.872;2023-05-13T13:04:37;7.00;;;2.75;;
62423;SDS011;48463;43.604;3.872;2023-05-13T13:07:03;3.80;;;2.35;;
62423;SDS011;48463;43.604;3.872;2023-05-13T13:09:32;1.63;;;1.10;;
62423;SDS011;48463;43.604;3.872;2023-05-13T13:11:59;6.20;;;1.77;;
62423;SDS011;48463;43.604;3.872;2023-05-13T13:14:25;2.97;;;1.65;;
62423;SDS011;48463;43.604;3.872;2023-05-13T13:16:51;3.03;;;1.52;;
62423;SDS011;48463;43.604;3.872;2023-05-13T13:19:16;2.45;;;1.35;;
62423;SDS011;48463;43.604;3.872;2023-05-13T13:21:42;4.45;;;1.88;;
62423;SDS011;48463;43.604;3.872;2023-05-13T13:24:08;2.90;;;1.65;;
62423;SDS011;48463;43.604;3.872;2023-05-13T13:26:33;4.40;;;1.55;;
62423;SDS011;48463;43.604;3.872;2023-05-13T13:28:59;4.47;;;2.17;;
62423;SDS011;48463;43.604;3.872;2023-05-13T13:31:25;4.45;;;2.08;;
62423;SDS011;48463;43.604;3.872;2023-05-13T13:33:50;4.85;;;2.22;;
62423;SDS011;48463;43.604;3.872;2023-05-13T13:36:17;11.63;;;1.80;;
62423;SDS011;48463;43.604;3.872;2023-05-13T13:38:43;2.85;;;1.42;;
62423;SDS011;48463;43.604;3.872;2023-05-13T13:41:09;2.88;;;1.70;;
62423;SDS011;48463;43.604;3.872;2023-05-13T13:43:35;3.92;;;1.80;;
62423;SDS011;48463;43.604;3.872;2023-05-13T13:46:01;2.17;;;1.42;;
62423;SDS011;48463;43.604;3.872;2023-05-13T13:48:26;2.05;;;1.63;;
62423;SDS011;48463;43.604;3.872;2023-05-13T13:50:52;2.50;;;1.50;;
62423;SDS011;48463;43.604;3.872;2023-05-13T13:53:19;1.60;;;1.27;;
62423;SDS011;48463;43.604;3.872;2023-05-13T13:55:44;3.47;;;1.83;;
62423;SDS011;48463;43.604;3.872;2023-05-13T13:58:10;10.98;;;4.93;;
62423;SDS011;48463;43.604;3.872;2023-05-13T14:00:36;8.00;;;4.60;;
62423;SDS011;48463;43.604;3.872;2023-05-13T14:03:01;14.52;;;8.52;;
62423;SDS011;48463;43.604;3.872;2023-05-13T14:05:27;12.18;;;8.15;;
62423;SDS011;48463;43.604;3.872;2023-05-13T14:07:54;19.25;;;7.25;;
62423;SDS011;48463;43.604;3.872;2023-05-13T14:10:20;5.00;;;2.70;;
62423;SDS011;48463;43.604;3.872;2023-05-13T14:12:46;5.10;;;2.35;;
62423;SDS011;48463;43.604;3.872;2023-05-13T14:15:11;3.85;;;1.88;;
62423;SDS011;48463;43.604;3.872;2023-05-13T14:17:37;4.30;;;2.00;;
62423;SDS011;48463;43.604;3.872;2023-05-13T14:20:03;3.72;;;2.22;;
62423;SDS011;48463;43.604;3.872;2023-05-13T14:22:30;3.85;;;1.77;;
62423;SDS011;48463;43.604;3.872;2023-05-13T14:24:55;5.30;;;1.88;;
62423;SDS011;48463;43.604;3.872;2023-05-13T14:27:23;6.70;;;4.15;;
62423;SDS011;48463;43.604;3.872;2023-05-13T14:29:48;11.15;;;7.70;;
62423;SDS011;48463;43.604;3.872;2023-05-13T14:32:14;13.48;;;9.27;;
62423;SDS011;48463;43.604;3.872;2023-05-13T14:34:40;5.28;;;2.95;;
62423;SDS011;48463;43.604;3.872;2023-05-13T14:37:06;3.40;;;1.50;;
62423;SDS011;48463;43.604;3.872;2023-05-13T14:39:32;1.48;;;1.10;;
62423;SDS011;48463;43.604;3.872;2023-05-13T14:41:58;4.63;;;1.42;;
62423;SDS011;48463;43.604;3.872;2023-05-13T14:44:24;3.40;;;1.85;;
62423;SDS011;48463;43.604;3.872;2023-05-13T14:46:50;5.53;;;2.38;;
62423;SDS011;48463;43.604;3.872;2023-05-13T14:49:16;4.15;;;1.60;;
62423;SDS011;48463;43.604;3.872;2023-05-13T14:51:41;7.15;;;1.88;;
62423;SDS011;48463;43.604;3.872;2023-05-13T14:54:07;3.25;;;1.40;;
62423;SDS011;48463;43.604;3.872;2023-05-13T14:56:33;2.80;;;1.60;;
62423;SDS011;48463;43.604;3.872;2023-05-13T14:58:59;2.38;;;1.38;;
62423;SDS011;48463;43.604;3.872;2023-05-13T15:01:26;2.55;;;1.23;;
62423;SDS011;48463;43.604;3.872;2023-05-13T15:03:52;4.47;;;1.30;;
62423;SDS011;48463;43.604;3.872;2023-05-13T15:06:17;2.95;;;1.45;;
62423;SDS011;48463;43.604;3.872;2023-05-13T15:08:43;3.38;;;1.70;;
62423;SDS011;48463;43.604;3.872;2023-05-13T15:11:09;3.28;;;1.42;;
62423;SDS011;48463;43.604;3.872;2023-05-13T15:13:34;1.58;;;0.75;;
62423;SDS011;48463;43.604;3.872;2023-05-13T15:16:01;4.60;;;1.45;;